Fremont, Iowa
Current Conditions -  °F | °C
As of 10:35 AM on Monday 24 Nov 2014 (Local Time) from KOOA Reporting Station
Overcast Overcast  
Wind Chill: 11°   Ceiling: 1900
Heat Index: 26°   Visibility: 10mi
Dew Point: 22°   Wind: 28mph
Humidity: 82%   Direction: 290°WNW
Pressure: 29.57"   Gusts: 35mph
Location:  41.21°N, 92.44°W
Report Text: KOOA 241635Z AUTO 29024G30KT 10SM OVC019 M03/M06 A2957 RMK AO2 T10311058
Loading
Personal Weather Stations






























Interactive Weather Map New forecast layout! Learn more

10-Day Weather Forecast

Advertisements
Track Severe Weather on mobile